Time,TemperatureF,DewpointF,PressureIn,WindDirection,WindDirectionDegrees,WindSpeedMPH,WindSpeedGustMPH,Humidity,HourlyPrecipIn,Conditions,Clouds,dailyrainin,SoftwareType,DateUTC
2013-07-25 00:01:00,60.8,55.9,29.94,ESE,107,0.0,2.0,84,0.00,,,0.04,VWS V14.01,2013-07-25 04:01:00,
2013-07-25 00:02:00,60.8,56.3,29.94,ESE,107,0.0,0.0,85,0.00,,,0.00,VWS V14.01,2013-07-25 04:02:00,
2013-07-25 00:03:00,60.8,56.6,29.94,ESE,107,0.0,0.0,86,0.00,,,0.00,VWS V14.01,2013-07-25 04:03:00,
2013-07-25 00:08:00,60.7,56.2,29.94,ESE,107,0.0,0.0,85,0.00,,,0.00,VWS V14.01,2013-07-25 04:08:00,
2013-07-25 00:13:00,60.7,56.5,29.94,ESE,107,0.0,0.0,86,0.00,,,0.00,VWS V14.01,2013-07-25 04:13:00,
2013-07-25 00:18:00,60.6,56.1,29.93,ESE,107,0.0,0.0,85,0.00,,,0.00,VWS V14.01,2013-07-25 04:18:00,
2013-07-25 00:23:00,60.6,56.1,29.94,South,180,0.0,2.0,85,0.00,,,0.00,VWS V14.01,2013-07-25 04:23:00,
2013-07-25 00:28:00,60.5,55.3,29.93,South,173,0.0,2.0,83,0.00,,,0.00,VWS V14.01,2013-07-25 04:28:00,
2013-07-25 00:33:00,60.5,56.0,29.94,South,173,0.0,1.0,85,0.00,,,0.00,VWS V14.01,2013-07-25 04:33:00,
2013-07-25 00:38:00,60.6,56.1,29.94,SW,228,0.0,2.0,85,0.00,,,0.00,VWS V14.01,2013-07-25 04:38:00,
2013-07-25 00:43:00,60.6,55.4,29.94,SSW,210,0.0,2.0,83,0.00,,,0.00,VWS V14.01,2013-07-25 04:43:00,
2013-07-25 00:48:00,60.6,55.8,29.94,SW,225,0.0,2.0,84,0.00,,,0.00,VWS V14.01,2013-07-25 04:48:00,
2013-07-25 00:54:00,60.7,55.5,29.94,WSW,244,0.0,2.0,83,0.00,,,0.00,VWS V14.01,2013-07-25 04:54:00,
2013-07-25 00:59:00,60.8,55.9,29.95,West,265,0.0,2.0,84,0.00,,,0.00,VWS V14.01,2013-07-25 04:59:00,
2013-07-25 01:04:00,60.9,55.7,29.95,NW,306,0.0,0.0,83,0.00,,,0.00,VWS V14.01,2013-07-25 05:04:00,
2013-07-25 01:09:00,61.0,56.1,29.95,NW,306,0.0,0.0,84,0.00,,,0.00,VWS V14.01,2013-07-25 05:09:00,
2013-07-25 01:14:00,60.9,55.4,29.95,NW,306,0.0,1.0,82,0.00,,,0.00,VWS V14.01,2013-07-25 05:14:00,
2013-07-25 01:19:00,61.0,56.1,29.95,NW,306,0.0,1.0,84,0.00,,,0.00,VWS V14.01,2013-07-25 05:19:00,
2013-07-25 01:24:00,61.1,55.9,29.94,NW,306,0.0,1.0,83,0.00,,,0.00,VWS V14.01,2013-07-25 05:24:00,
2013-07-25 01:29:00,61.1,55.9,29.94,NW,306,0.0,1.0,83,0.00,,,0.00,VWS V14.01,2013-07-25 05:29:00,
2013-07-25 01:34:00,61.1,55.9,29.94,NW,306,0.0,0.0,83,0.00,,,0.00,VWS V14.01,2013-07-25 05:34:00,
2013-07-25 01:39:00,61.1,55.9,29.94,NW,306,0.0,1.0,83,0.00,,,0.00,VWS V14.01,2013-07-25 05:39:00,
2013-07-25 01:45:00,61.1,56.9,29.94,NW,306,0.0,1.0,86,0.00,,,0.00,VWS V14.01,2013-07-25 05:45:00,
2013-07-25 01:50:00,60.9,55.7,29.94,WNW,286,0.0,1.0,83,0.00,,,0.00,VWS V14.01,2013-07-25 05:50:00,
2013-07-25 01:55:00,60.9,56.4,29.94,WNW,286,0.0,1.0,85,0.00,,,0.00,VWS V14.01,2013-07-25 05:55:00,
2013-07-25 02:00:00,60.8,56.6,29.95,WNW,286,0.0,1.0,86,0.00,,,0.00,VWS V14.01,2013-07-25 06:00:00,
2013-07-25 02:05:00,60.7,56.2,29.94,WNW,286,0.0,1.0,85,0.00,,,0.00,VWS V14.01,2013-07-25 06:05:00,
2013-07-25 02:10:00,60.7,56.2,29.95,WNW,286,0.0,1.0,85,0.00,,,0.00,VWS V14.01,2013-07-25 06:10:00,
2013-07-25 02:15:00,60.7,55.8,29.94,WNW,286,0.0,1.0,84,0.00,,,0.00,VWS V14.01,2013-07-25 06:15:00,
2013-07-25 02:20:00,60.6,55.8,29.94,WNW,286,0.0,1.0,84,0.00,,,0.00,VWS V14.01,2013-07-25 06:20:00,
2013-07-25 02:25:00,60.5,55.7,29.94,WNW,286,0.0,1.0,84,0.00,,,0.00,VWS V14.01,2013-07-25 06:25:00,
2013-07-25 02:30:00,60.4,55.9,29.94,WNW,286,0.0,1.0,85,0.00,,,0.00,VWS V14.01,2013-07-25 06:30:00,
2013-07-25 02:35:00,60.4,56.2,29.94,WNW,286,0.0,0.0,86,0.00,,,0.00,VWS V14.01,2013-07-25 06:35:00,
2013-07-25 02:40:00,60.3,56.1,29.95,WNW,286,0.0,0.0,86,0.00,,,0.00,VWS V14.01,2013-07-25 06:40:00,
2013-07-25 02:46:00,60.2,56.0,29.95,WNW,286,0.0,0.0,86,0.00,,,0.00,VWS V14.01,2013-07-25 06:46:00,
2013-07-25 02:51:00,60.2,55.7,29.95,WNW,286,0.0,2.0,85,0.00,,,0.00,VWS V14.01,2013-07-25 06:51:00,
2013-07-25 02:56:00,60.3,55.8,29.95,WNW,286,0.0,2.0,85,0.00,,,0.00,VWS V14.01,2013-07-25 06:56:00,
2013-07-25 03:01:00,60.3,55.8,29.95,WNW,286,0.0,0.0,85,0.00,,,0.00,VWS V14.01,2013-07-25 07:01:00,
2013-07-25 03:06:00,60.3,56.1,29.95,WNW,286,0.0,1.0,86,0.00,,,0.00,VWS V14.01,2013-07-25 07:06:00,
2013-07-25 03:11:00,60.1,55.9,29.95,WNW,286,0.0,1.0,86,0.00,,,0.00,VWS V14.01,2013-07-25 07:11:00,
2013-07-25 03:16:00,60.0,55.8,29.95,WNW,286,0.0,1.0,86,0.00,,,0.00,VWS V14.01,2013-07-25 07:16:00,
2013-07-25 03:21:00,59.9,56.0,29.95,WNW,286,0.0,1.0,87,0.00,,,0.00,VWS V14.01,2013-07-25 07:21:00,
2013-07-25 03:26:00,60.0,56.4,29.95,WNW,286,0.0,1.0,88,0.00,,,0.00,VWS V14.01,2013-07-25 07:26:00,
2013-07-25 03:31:00,60.0,56.4,29.95,WNW,286,0.0,0.0,88,0.00,,,0.00,VWS V14.01,2013-07-25 07:31:00,
2013-07-25 03:36:00,59.9,56.3,29.95,WNW,286,0.0,0.0,88,0.00,,,0.00,VWS V14.01,2013-07-25 07:36:00,
2013-07-25 03:41:00,59.8,56.2,29.95,WNW,286,0.0,0.0,88,0.00,,,0.00,VWS V14.01,2013-07-25 07:41:00,
2013-07-25 03:47:00,59.7,56.2,29.95,WNW,286,0.0,0.0,88,0.00,,,0.00,VWS V14.01,2013-07-25 07:47:00,
2013-07-25 03:52:00,59.7,56.2,29.94,WNW,286,0.0,0.0,88,0.00,,,0.00,VWS V14.01,2013-07-25 07:52:00,
2013-07-25 03:57:00,59.7,56.2,29.94,WNW,286,0.0,0.0,88,0.00,,,0.00,VWS V14.01,2013-07-25 07:57:00,
2013-07-25 04:02:00,59.6,55.7,29.95,WNW,286,0.0,0.0,87,0.00,,,0.00,VWS V14.01,2013-07-25 08:02:00,
2013-07-25 04:07:00,59.6,56.0,29.95,WNW,286,0.0,0.0,88,0.00,,,0.00,VWS V14.01,2013-07-25 08:07:00,
2013-07-25 04:12:00,59.6,55.4,29.96,WNW,286,0.0,0.0,86,0.00,,,0.00,VWS V14.01,2013-07-25 08:12:00,
2013-07-25 04:17:00,59.5,54.7,29.96,West,279,0.0,2.0,84,0.00,,,0.00,VWS V14.01,2013-07-25 08:17:00,
2013-07-25 04:22:00,59.5,54.7,29.96,West,260,0.0,2.0,84,0.00,,,0.00,VWS V14.01,2013-07-25 08:22:00,
2013-07-25 04:27:00,59.6,55.4,29.96,West,260,0.0,2.0,86,0.00,,,0.00,VWS V14.01,2013-07-25 08:27:00,
2013-07-25 04:32:00,59.6,55.4,29.96,West,260,0.0,0.0,86,0.00,,,0.00,VWS V14.01,2013-07-25 08:32:00,
2013-07-25 04:37:00,59.6,55.4,29.96,West,260,0.0,0.0,86,0.00,,,0.00,VWS V14.01,2013-07-25 08:37:00,
2013-07-25 04:42:00,59.5,55.3,29.97,West,260,0.0,1.0,86,0.00,,,0.00,VWS V14.01,2013-07-25 08:42:00,
2013-07-25 04:47:00,59.3,54.5,29.97,SSW,211,0.0,2.0,84,0.00,,,0.00,VWS V14.01,2013-07-25 08:47:00,
2013-07-25 04:53:00,59.3,55.1,29.96,SSW,212,0.0,2.0,86,0.00,,,0.00,VWS V14.01,2013-07-25 08:53:00,
2013-07-25 04:58:00,59.2,55.3,29.97,SSW,212,0.0,2.0,87,0.00,,,0.00,VWS V14.01,2013-07-25 08:58:00,
2013-07-25 05:03:00,59.0,55.1,29.97,WNW,290,0.0,2.0,87,0.00,,,0.00,VWS V14.01,2013-07-25 09:03:00,
2013-07-25 05:08:00,58.8,55.0,29.97,WNW,290,0.0,2.0,87,0.00,,,0.00,VWS V14.01,2013-07-25 09:08:00,
2013-07-25 05:13:00,58.6,54.8,29.97,WNW,290,0.0,2.0,87,0.00,,,0.00,VWS V14.01,2013-07-25 09:13:00,
2013-07-25 05:18:00,58.5,54.7,29.97,WNW,290,0.0,2.0,87,0.00,,,0.00,VWS V14.01,2013-07-25 09:18:00,
2013-07-25 05:23:00,58.4,54.9,29.97,WNW,290,0.0,2.0,88,0.00,,,0.00,VWS V14.01,2013-07-25 09:23:00,
2013-07-25 05:28:00,58.2,54.7,29.97,West,265,0.0,2.0,88,0.00,,,0.00,VWS V14.01,2013-07-25 09:28:00,
2013-07-25 05:33:00,58.2,54.7,29.98,West,265,0.0,0.0,88,0.00,,,0.00,VWS V14.01,2013-07-25 09:33:00,
2013-07-25 05:38:00,58.1,54.3,29.98,West,265,0.0,1.0,87,0.00,,,0.00,VWS V14.01,2013-07-25 09:38:00,
2013-07-25 05:43:00,58.1,53.6,29.99,West,277,0.0,3.0,85,0.00,,,0.00,VWS V14.01,2013-07-25 09:43:00,
2013-07-25 05:48:00,58.3,54.1,29.98,WNW,299,0.0,3.0,86,0.00,,,0.00,VWS V14.01,2013-07-25 09:48:00,
2013-07-25 05:53:00,58.4,54.2,29.98,SSW,204,0.0,3.0,86,0.00,,,0.00,VWS V14.01,2013-07-25 09:53:00,
2013-07-25 05:58:00,58.4,54.2,29.97,SSW,204,0.0,3.0,86,0.00,,,0.00,VWS V14.01,2013-07-25 09:58:00,
2013-07-25 06:03:00,58.4,54.2,29.98,WSW,238,0.0,0.0,86,0.00,,,0.00,VWS V14.01,2013-07-25 10:03:00,
2013-07-25 06:08:00,58.3,54.1,29.98,WSW,238,0.0,0.0,86,0.00,,,0.00,VWS V14.01,2013-07-25 10:08:00,
2013-07-25 06:09:00,58.2,54.4,29.98,WSW,238,0.0,0.0,87,0.00,,,0.00,VWS V14.01,2013-07-25 10:09:00,
2013-07-25 06:14:00,58.0,53.8,29.98,WSW,238,0.0,0.0,86,0.00,,,0.00,VWS V14.01,2013-07-25 10:14:00,
2013-07-25 06:19:00,57.8,53.7,29.98,SE,146,0.0,2.0,86,0.00,,,0.00,VWS V14.01,2013-07-25 10:19:00,
2013-07-25 06:24:00,57.7,53.5,29.98,SE,146,0.0,2.0,86,0.00,,,0.00,VWS V14.01,2013-07-25 10:24:00,
2013-07-25 06:29:00,57.6,53.8,29.98,SSE,158,0.0,2.0,87,0.00,,,0.00,VWS V14.01,2013-07-25 10:29:00,
2013-07-25 06:34:00,57.5,53.7,29.99,SSE,158,0.0,0.0,87,0.00,,,0.00,VWS V14.01,2013-07-25 10:34:00,
2013-07-25 06:39:00,57.6,53.5,29.98,South,172,0.0,1.0,86,0.00,,,0.00,VWS V14.01,2013-07-25 10:39:00,
2013-07-25 06:44:00,57.7,53.9,29.98,SSW,213,0.0,2.0,87,0.00,,,0.00,VWS V14.01,2013-07-25 10:44:00,
2013-07-25 06:49:00,57.8,53.0,29.99,SSW,213,0.0,2.0,84,0.00,,,0.00,VWS V14.01,2013-07-25 10:49:00,
2013-07-25 06:54:00,57.9,52.8,29.99,WNW,301,0.0,3.0,83,0.00,,,0.00,VWS V14.01,2013-07-25 10:54:00,
2013-07-25 06:59:00,58.0,52.9,29.99,West,272,0.0,3.0,83,0.00,,,0.00,VWS V14.01,2013-07-25 10:59:00,
2013-07-25 07:04:00,58.1,53.0,29.99,SSE,155,1.0,2.0,83,0.00,,,0.00,VWS V14.01,2013-07-25 11:04:00,
2013-07-25 07:09:00,58.1,53.0,30.00,NW,307,0.0,2.0,83,0.00,,,0.00,VWS V14.01,2013-07-25 11:09:00,
2013-07-25 07:15:00,58.2,53.4,30.00,NW,307,0.0,2.0,84,0.00,,,0.00,VWS V14.01,2013-07-25 11:15:00,
2013-07-25 07:20:00,58.1,52.3,30.00,NW,307,0.0,2.0,81,0.00,,,0.00,VWS V14.01,2013-07-25 11:20:00,
2013-07-25 07:25:00,58.2,53.7,30.00,NW,307,0.0,2.0,85,0.00,,,0.00,VWS V14.01,2013-07-25 11:25:00,
2013-07-25 07:30:00,58.2,54.0,30.00,South,187,0.0,2.0,86,0.00,,,0.00,VWS V14.01,2013-07-25 11:30:00,
2013-07-25 07:35:00,58.2,54.4,30.00,South,187,0.0,1.0,87,0.00,,,0.00,VWS V14.01,2013-07-25 11:35:00,
2013-07-25 07:40:00,58.1,53.6,30.00,South,187,0.0,1.0,85,0.00,,,0.00,VWS V14.01,2013-07-25 11:40:00,
2013-07-25 07:45:00,58.1,53.0,30.00,SSW,202,0.0,2.0,83,0.00,,,0.00,VWS V14.01,2013-07-25 11:45:00,
2013-07-25 07:50:00,58.2,53.7,30.00,SSW,192,0.0,3.0,85,0.00,,,0.00,VWS V14.01,2013-07-25 11:50:00,
2013-07-25 07:55:00,58.4,53.6,30.00,SSW,192,0.0,3.0,84,0.00,,,0.00,VWS V14.01,2013-07-25 11:55:00,
2013-07-25 08:00:00,58.5,54.7,30.01,SSW,192,0.0,3.0,87,0.00,,,0.00,VWS V14.01,2013-07-25 12:00:00,
2013-07-25 08:05:00,58.4,52.9,30.01,SSW,192,0.0,0.0,82,0.00,,,0.00,VWS V14.01,2013-07-25 12:05:00,
2013-07-25 08:10:00,58.6,53.8,30.01,SSW,192,0.0,1.0,84,0.00,,,0.00,VWS V14.01,2013-07-25 12:10:00,
2013-07-25 08:15:00,58.8,54.6,30.01,SSW,192,0.0,1.0,86,0.00,,,0.00,VWS V14.01,2013-07-25 12:15:00,
2013-07-25 08:20:00,59.0,54.5,30.02,SSW,192,0.0,1.0,85,0.00,,,0.00,VWS V14.01,2013-07-25 12:20:00,
2013-07-25 08:25:00,59.1,54.9,30.02,SSW,192,0.0,1.0,86,0.00,,,0.00,VWS V14.01,2013-07-25 12:25:00,
2013-07-25 08:30:00,59.0,53.2,30.02,SSW,192,0.0,1.0,81,0.00,,,0.00,VWS V14.01,2013-07-25 12:30:00,
2013-07-25 08:35:00,59.1,53.6,30.02,SSW,192,0.0,0.0,82,0.00,,,0.00,VWS V14.01,2013-07-25 12:35:00,
2013-07-25 08:40:00,59.3,54.2,30.02,SSW,192,0.0,0.0,83,0.00,,,0.00,VWS V14.01,2013-07-25 12:40:00,
2013-07-25 08:45:00,59.4,54.6,30.03,SSW,192,0.0,0.0,84,0.00,,,0.00,VWS V14.01,2013-07-25 12:45:00,
2013-07-25 08:50:00,59.4,54.6,30.03,SSW,192,0.0,1.0,84,0.00,,,0.00,VWS V14.01,2013-07-25 12:50:00,
2013-07-25 08:55:00,59.5,55.3,30.03,SSW,192,0.0,1.0,86,0.00,,,0.00,VWS V14.01,2013-07-25 12:55:00,
2013-07-25 09:00:00,59.4,54.2,30.03,SSW,192,0.0,1.0,83,0.00,,,0.00,VWS V14.01,2013-07-25 13:00:00,
2013-07-25 09:06:00,59.3,53.8,30.03,SSW,192,0.0,0.0,82,0.00,,,0.00,VWS V14.01,2013-07-25 13:06:00,
2013-07-25 09:11:00,59.4,53.9,30.03,SSW,192,0.0,0.0,82,0.00,,,0.00,VWS V14.01,2013-07-25 13:11:00,
2013-07-25 09:16:00,59.6,54.1,30.02,SSW,192,0.0,0.0,82,0.00,,,0.00,VWS V14.01,2013-07-25 13:16:00,
2013-07-25 09:21:00,60.1,54.6,30.03,SSW,203,0.0,1.0,82,0.00,,,0.00,VWS V14.01,2013-07-25 13:21:00,
2013-07-25 09:26:00,60.5,54.7,30.03,SSW,203,0.0,1.0,81,0.00,,,0.00,VWS V14.01,2013-07-25 13:26:00,
2013-07-25 09:31:00,60.7,54.5,30.03,SW,229,0.0,1.0,80,0.00,,,0.00,VWS V14.01,2013-07-25 13:31:00,
2013-07-25 09:37:00,60.9,55.0,30.03,SW,229,0.0,1.0,81,0.00,,,0.00,VWS V14.01,2013-07-25 13:37:00,
2013-07-25 09:42:00,61.1,54.5,30.03,North,360,0.0,1.0,79,0.00,,,0.00,VWS V14.01,2013-07-25 13:42:00,
2013-07-25 09:47:00,61.5,55.6,30.03,WNW,296,0.0,1.0,81,0.00,,,0.00,VWS V14.01,2013-07-25 13:47:00,
2013-07-25 09:52:00,61.8,55.2,30.03,WNW,296,0.0,1.0,79,0.00,,,0.00,VWS V14.01,2013-07-25 13:52:00,
2013-07-25 09:57:00,62.1,55.2,30.03,WNW,296,0.0,1.0,78,0.00,,,0.00,VWS V14.01,2013-07-25 13:57:00,
2013-07-25 10:02:00,62.2,54.9,30.03,WNW,298,0.0,1.0,77,0.00,,,0.00,VWS V14.01,2013-07-25 14:02:00,
2013-07-25 10:07:00,62.1,54.1,30.04,SW,232,0.0,2.0,75,0.00,,,0.00,VWS V14.01,2013-07-25 14:07:00,
2013-07-25 10:12:00,61.9,54.6,30.04,NNW,348,0.0,3.0,77,0.00,,,0.00,VWS V14.01,2013-07-25 14:12:00,
2013-07-25 10:17:00,61.9,55.0,30.04,South,185,0.0,3.0,78,0.00,,,0.00,VWS V14.01,2013-07-25 14:17:00,
2013-07-25 10:22:00,62.0,55.4,30.04,South,185,0.0,3.0,79,0.00,,,0.00,VWS V14.01,2013-07-25 14:22:00,
2013-07-25 10:27:00,62.0,55.4,30.04,South,188,0.0,3.0,79,0.00,,,0.00,VWS V14.01,2013-07-25 14:27:00,
2013-07-25 10:32:00,61.9,55.3,30.04,South,188,0.0,0.0,79,0.00,,,0.00,VWS V14.01,2013-07-25 14:32:00,
2013-07-25 10:37:00,61.9,55.3,30.03,SW,219,0.0,2.0,79,0.00,,,0.00,VWS V14.01,2013-07-25 14:37:00,
2013-07-25 10:42:00,62.0,56.1,30.03,SW,219,0.0,2.0,81,0.00,,,0.00,VWS V14.01,2013-07-25 14:42:00,
2013-07-25 10:47:00,62.1,56.2,30.04,West,278,0.0,3.0,81,0.00,,,0.00,VWS V14.01,2013-07-25 14:47:00,
2013-07-25 10:52:00,62.2,55.6,30.04,West,278,0.0,3.0,79,0.00,,,0.00,VWS V14.01,2013-07-25 14:52:00,
2013-07-25 10:58:00,62.5,56.2,30.04,West,278,0.0,3.0,80,0.00,,,0.00,VWS V14.01,2013-07-25 14:58:00,
2013-07-25 11:03:00,62.8,55.5,30.04,West,281,0.0,1.0,77,0.00,,,0.00,VWS V14.01,2013-07-25 15:03:00,
2013-07-25 11:08:00,63.1,56.1,30.04,WSW,252,1.0,2.0,78,0.00,,,0.00,VWS V14.01,2013-07-25 15:08:00,
2013-07-25 11:13:00,63.4,57.1,30.04,WSW,252,0.0,2.0,80,0.00,,,0.00,VWS V14.01,2013-07-25 15:13:00,
2013-07-25 11:18:00,63.5,56.5,30.04,WSW,252,0.0,2.0,78,0.00,,,0.00,VWS V14.01,2013-07-25 15:18:00,
2013-07-25 11:23:00,63.4,56.1,30.05,SSE,149,0.0,4.0,77,0.00,,,0.00,VWS V14.01,2013-07-25 15:23:00,
2013-07-25 11:28:00,63.3,56.0,30.05,SSE,149,0.0,4.0,77,0.00,,,0.00,VWS V14.01,2013-07-25 15:28:00,
2013-07-25 11:33:00,63.3,56.0,30.05,SSW,194,0.0,1.0,77,0.00,,,0.00,VWS V14.01,2013-07-25 15:33:00,
2013-07-25 11:38:00,63.2,56.6,30.05,SSW,194,0.0,1.0,79,0.00,,,0.00,VWS V14.01,2013-07-25 15:38:00,
2013-07-25 11:43:00,63.1,56.1,30.04,South,190,0.0,1.0,78,0.00,,,0.00,VWS V14.01,2013-07-25 15:43:00,
2013-07-25 11:48:00,63.1,56.5,30.04,SSW,197,0.0,1.0,79,0.00,,,0.00,VWS V14.01,2013-07-25 15:48:00,
2013-07-25 11:53:00,63.2,56.2,30.04,SW,222,1.0,1.0,78,0.00,,,0.00,VWS V14.01,2013-07-25 15:53:00,
2013-07-25 11:58:00,63.4,56.4,30.05,SW,222,0.0,1.0,78,0.00,,,0.00,VWS V14.01,2013-07-25 15:58:00,
2013-07-25 12:03:00,63.6,55.9,30.05,SW,222,0.0,0.0,76,0.00,,,0.00,VWS V14.01,2013-07-25 16:03:00,
2013-07-25 12:08:00,63.7,55.6,30.05,West,280,1.0,3.0,75,0.00,,,0.00,VWS V14.01,2013-07-25 16:08:00,
2013-07-25 12:13:00,63.5,55.4,30.06,NW,321,0.0,3.0,75,0.00,,,0.00,VWS V14.01,2013-07-25 16:13:00,
2013-07-25 12:18:00,63.4,56.4,30.06,WNW,302,0.0,3.0,78,0.00,,,0.00,VWS V14.01,2013-07-25 16:18:00,
2013-07-25 12:24:00,63.2,55.5,30.07,WNW,288,0.0,3.0,76,0.00,,,0.00,VWS V14.01,2013-07-25 16:24:00,
2013-07-25 12:29:00,63.1,56.1,30.07,North,350,0.0,3.0,78,0.00,,,0.00,VWS V14.01,2013-07-25 16:29:00,
2013-07-25 12:34:00,62.9,56.6,30.07,NNW,329,0.0,1.0,80,0.00,,,0.00,VWS V14.01,2013-07-25 16:34:00,
2013-07-25 12:39:00,62.9,56.6,30.06,NNW,330,0.0,1.0,80,0.00,,,0.00,VWS V14.01,2013-07-25 16:39:00,
2013-07-25 12:44:00,62.8,56.5,30.06,NW,326,0.0,1.0,80,0.00,,,0.00,VWS V14.01,2013-07-25 16:44:00,
2013-07-25 12:49:00,62.8,56.5,30.06,NW,326,0.0,1.0,80,0.00,,,0.00,VWS V14.01,2013-07-25 16:49:00,
2013-07-25 12:54:00,62.8,56.2,30.06,NW,323,0.0,1.0,79,0.00,,,0.00,VWS V14.01,2013-07-25 16:54:00,
2013-07-25 12:59:00,63.0,56.7,30.06,NW,323,0.0,1.0,80,0.00,,,0.00,VWS V14.01,2013-07-25 16:59:00,
2013-07-25 13:04:00,63.1,57.5,30.05,WNW,289,0.0,1.0,82,0.00,,,0.00,VWS V14.01,2013-07-25 17:04:00,
2013-07-25 13:09:00,63.3,57.0,30.05,WNW,289,0.0,1.0,80,0.00,,,0.00,VWS V14.01,2013-07-25 17:09:00,
2013-07-25 13:14:00,63.7,57.4,30.05,WNW,289,0.0,1.0,80,0.00,,,0.00,VWS V14.01,2013-07-25 17:14:00,
2013-07-25 13:19:00,64.0,57.0,30.05,West,276,0.0,2.0,78,0.00,,,0.00,VWS V14.01,2013-07-25 17:19:00,
2013-07-25 13:24:00,64.2,56.8,30.05,WNW,298,2.0,4.0,77,0.00,,,0.00,VWS V14.01,2013-07-25 17:24:00,
2013-07-25 13:29:00,64.1,57.5,30.05,WNW,286,2.0,4.0,79,0.00,,,0.00,VWS V14.01,2013-07-25 17:29:00,
2013-07-25 13:34:00,64.0,56.3,30.05,South,187,1.0,4.0,76,0.00,,,0.00,VWS V14.01,2013-07-25 17:34:00,
2013-07-25 13:39:00,63.9,58.0,30.05,WNW,302,0.0,4.0,81,0.00,,,0.00,VWS V14.01,2013-07-25 17:39:00,
2013-07-25 13:44:00,64.0,58.1,30.05,WNW,302,0.0,4.0,81,0.00,,,0.00,VWS V14.01,2013-07-25 17:44:00,
2013-07-25 13:49:00,63.9,56.9,30.05,WSW,237,0.0,4.0,78,0.00,,,0.00,VWS V14.01,2013-07-25 17:49:00,
2013-07-25 13:54:00,63.9,58.0,30.05,WSW,237,0.0,4.0,81,0.00,,,0.00,VWS V14.01,2013-07-25 17:54:00,
2013-07-25 14:00:00,63.8,57.2,30.04,WSW,237,0.0,4.0,79,0.00,,,0.00,VWS V14.01,2013-07-25 18:00:00,
2013-07-25 14:05:00,63.8,57.9,30.04,WSW,237,0.0,0.0,81,0.00,,,0.00,VWS V14.01,2013-07-25 18:05:00,
2013-07-25 14:10:00,63.9,58.0,30.04,WSW,237,0.0,0.0,81,0.00,,,0.00,VWS V14.01,2013-07-25 18:10:00,
2013-07-25 14:15:00,64.0,57.7,30.04,East,100,0.0,2.0,80,0.00,,,0.00,VWS V14.01,2013-07-25 18:15:00,
2013-07-25 14:20:00,64.1,57.5,30.04,West,274,0.0,2.0,79,0.00,,,0.00,VWS V14.01,2013-07-25 18:20:00,
2013-07-25 14:25:00,64.3,58.3,30.04,SSW,196,0.0,2.0,81,0.00,,,0.00,VWS V14.01,2013-07-25 18:25:00,
2013-07-25 14:30:00,64.5,57.8,30.05,SSW,196,0.0,2.0,79,0.00,,,0.00,VWS V14.01,2013-07-25 18:30:00,
2013-07-25 14:35:00,64.7,59.1,30.04,SW,230,0.0,2.0,82,0.00,,,0.00,VWS V14.01,2013-07-25 18:35:00,
2013-07-25 14:40:00,64.9,58.2,30.04,West,260,0.0,2.0,79,0.00,,,0.00,VWS V14.01,2013-07-25 18:40:00,
2013-07-25 14:45:00,65.2,59.2,30.03,WNW,303,0.0,2.0,81,0.00,,,0.00,VWS V14.01,2013-07-25 18:45:00,
2013-07-25 14:50:00,65.6,59.3,30.04,WNW,287,0.0,3.0,80,0.00,,,0.00,VWS V14.01,2013-07-25 18:50:00,
2013-07-25 14:55:00,65.9,59.2,30.04,WNW,287,0.0,3.0,79,0.00,,,0.00,VWS V14.01,2013-07-25 18:55:00,
2013-07-25 15:00:00,66.0,59.3,30.05,WNW,287,0.0,3.0,79,0.00,,,0.00,VWS V14.01,2013-07-25 19:00:00,
2013-07-25 15:05:00,66.1,59.8,30.05,WNW,287,0.0,0.0,80,0.00,,,0.00,VWS V14.01,2013-07-25 19:05:00,
2013-07-25 15:10:00,66.1,59.4,30.05,WNW,287,0.0,1.0,79,0.00,,,0.00,VWS V14.01,2013-07-25 19:10:00,
2013-07-25 15:15:00,66.1,59.8,30.04,WNW,287,0.0,1.0,80,0.00,,,0.00,VWS V14.01,2013-07-25 19:15:00,
2013-07-25 15:20:00,66.2,59.5,30.04,WNW,287,0.0,1.0,79,0.00,,,0.00,VWS V14.01,2013-07-25 19:20:00,
2013-07-25 15:25:00,66.2,59.9,30.05,WNW,286,0.0,1.0,80,0.00,,,0.00,VWS V14.01,2013-07-25 19:25:00,
2013-07-25 15:30:00,66.3,60.3,30.05,WNW,286,0.0,1.0,81,0.00,,,0.00,VWS V14.01,2013-07-25 19:30:00,
2013-07-25 15:35:00,66.3,59.2,30.05,WNW,286,0.0,0.0,78,0.00,,,0.00,VWS V14.01,2013-07-25 19:35:00,
2013-07-25 15:40:00,66.5,61.2,30.05,WNW,286,0.0,0.0,83,0.00,,,0.00,VWS V14.01,2013-07-25 19:40:00,
2013-07-25 15:45:00,66.5,60.5,30.05,WNW,286,0.0,0.0,81,0.00,,,0.00,VWS V14.01,2013-07-25 19:45:00,
2013-07-25 15:50:00,66.5,59.8,30.05,WNW,286,0.0,0.0,79,0.00,,,0.00,VWS V14.01,2013-07-25 19:50:00,
2013-07-25 15:55:00,66.4,59.3,30.05,WNW,286,0.0,0.0,78,0.00,,,0.00,VWS V14.01,2013-07-25 19:55:00,
2013-07-25 16:00:00,66.4,59.3,30.04,WNW,286,0.0,0.0,78,0.00,,,0.00,VWS V14.01,2013-07-25 20:00:00,
2013-07-25 16:05:00,66.5,59.8,30.04,WNW,286,0.0,0.0,79,0.00,,,0.00,VWS V14.01,2013-07-25 20:05:00,
2013-07-25 16:11:00,66.6,59.5,30.04,WNW,289,1.0,1.0,78,0.00,,,0.00,VWS V14.01,2013-07-25 20:11:00,
2013-07-25 16:16:00,66.8,60.1,30.04,WNW,289,0.0,1.0,79,0.00,,,0.00,VWS V14.01,2013-07-25 20:16:00,
2013-07-25 16:21:00,66.9,60.2,30.04,WNW,289,0.0,1.0,79,0.00,,,0.00,VWS V14.01,2013-07-25 20:21:00,
2013-07-25 16:26:00,67.1,61.1,30.04,WNW,289,0.0,1.0,81,0.00,,,0.00,VWS V14.01,2013-07-25 20:26:00,
2013-07-25 16:31:00,67.2,60.8,30.04,WNW,289,0.0,0.0,80,0.00,,,0.00,VWS V14.01,2013-07-25 20:31:00,
2013-07-25 16:36:00,67.4,61.0,30.03,WNW,289,0.0,1.0,80,0.00,,,0.00,VWS V14.01,2013-07-25 20:36:00,
2013-07-25 16:41:00,67.5,61.8,30.03,WNW,289,0.0,1.0,82,0.00,,,0.00,VWS V14.01,2013-07-25 20:41:00,
2013-07-25 16:46:00,67.6,61.6,30.03,North,360,0.0,1.0,81,0.00,,,0.00,VWS V14.01,2013-07-25 20:46:00,
2013-07-25 16:51:00,67.6,60.9,30.03,West,270,0.0,2.0,79,0.00,,,0.00,VWS V14.01,2013-07-25 20:51:00,
2013-07-25 16:57:00,67.6,60.5,30.03,West,270,0.0,2.0,78,0.00,,,0.00,VWS V14.01,2013-07-25 20:57:00,
2013-07-25 17:02:00,67.7,61.0,30.03,West,270,0.0,0.0,79,0.00,,,0.00,VWS V14.01,2013-07-25 21:02:00,
2013-07-25 17:07:00,67.7,61.3,30.03,West,270,0.0,0.0,80,0.00,,,0.00,VWS V14.01,2013-07-25 21:07:00,
2013-07-25 17:12:00,67.7,61.7,30.03,West,270,0.0,0.0,81,0.00,,,0.00,VWS V14.01,2013-07-25 21:12:00,
2013-07-25 17:17:00,67.9,62.9,30.03,WSW,250,0.0,0.0,84,0.00,,,0.00,VWS V14.01,2013-07-25 21:17:00,
2013-07-25 17:22:00,67.8,61.8,30.03,WSW,255,0.0,0.0,81,0.00,,,0.00,VWS V14.01,2013-07-25 21:22:00,
2013-07-25 17:27:00,67.8,62.8,30.03,WSW,255,0.0,0.0,84,0.00,,,0.00,VWS V14.01,2013-07-25 21:27:00,
2013-07-25 17:32:00,67.8,62.8,30.03,WSW,255,0.0,0.0,84,0.00,,,0.00,VWS V14.01,2013-07-25 21:32:00,
2013-07-25 17:37:00,67.8,63.5,30.03,WSW,255,0.0,0.0,86,0.00,,,0.00,VWS V14.01,2013-07-25 21:37:00,
2013-07-25 17:42:00,67.7,63.4,30.03,WSW,255,0.0,0.0,86,0.00,,,0.00,VWS V14.01,2013-07-25 21:42:00,
2013-07-25 17:47:00,67.5,63.2,30.02,WSW,255,0.0,0.0,86,0.00,,,0.00,VWS V14.01,2013-07-25 21:47:00,
2013-07-25 17:52:00,67.3,63.0,30.02,WSW,255,0.0,0.0,86,0.00,,,0.00,VWS V14.01,2013-07-25 21:52:00,
2013-07-25 17:57:00,67.2,63.2,30.03,WSW,255,0.0,0.0,87,0.00,,,0.00,VWS V14.01,2013-07-25 21:57:00,
2013-07-25 18:02:00,67.1,63.4,30.03,WSW,255,0.0,0.0,88,0.00,,,0.00,VWS V14.01,2013-07-25 22:02:00,
2013-07-25 18:08:00,66.9,63.2,30.03,WSW,255,0.0,0.0,88,0.00,,,0.00,VWS V14.01,2013-07-25 22:08:00,
2013-07-25 18:13:00,66.7,62.7,30.03,WSW,255,0.0,0.0,87,0.00,,,0.00,VWS V14.01,2013-07-25 22:13:00,
2013-07-25 18:18:00,66.7,63.0,30.03,WSW,255,0.0,0.0,88,0.00,,,0.00,VWS V14.01,2013-07-25 22:18:00,
2013-07-25 18:23:00,66.5,62.8,30.04,WSW,255,0.0,0.0,88,0.00,,,0.00,VWS V14.01,2013-07-25 22:23:00,
2013-07-25 18:28:00,66.3,62.6,30.04,WSW,255,0.0,0.0,88,0.00,,,0.00,VWS V14.01,2013-07-25 22:28:00,
2013-07-25 18:33:00,66.1,62.5,30.04,WSW,255,0.0,0.0,88,0.00,,,0.00,VWS V14.01,2013-07-25 22:33:00,
2013-07-25 18:38:00,65.9,62.6,30.04,WSW,255,0.0,0.0,89,0.00,,,0.00,VWS V14.01,2013-07-25 22:38:00,
2013-07-25 18:43:00,65.8,62.5,30.04,WSW,255,0.0,0.0,89,0.00,,,0.00,VWS V14.01,2013-07-25 22:43:00,
2013-07-25 18:48:00,65.6,62.3,30.04,WSW,255,0.0,0.0,89,0.00,,,0.00,VWS V14.01,2013-07-25 22:48:00,
2013-07-25 18:53:00,65.5,62.5,30.04,WSW,255,0.0,0.0,90,0.00,,,0.00,VWS V14.01,2013-07-25 22:53:00,
2013-07-25 18:58:00,65.4,62.4,30.04,WSW,255,0.0,0.0,90,0.00,,,0.00,VWS V14.01,2013-07-25 22:58:00,
2013-07-25 19:03:00,65.3,62.3,30.04,WSW,255,0.0,0.0,90,0.00,,,0.00,VWS V14.01,2013-07-25 23:03:00,
2013-07-25 19:08:00,65.1,62.1,30.04,WSW,255,0.0,0.0,90,0.00,,,0.00,VWS V14.01,2013-07-25 23:08:00,
2013-07-25 19:13:00,65.0,62.0,30.04,WSW,255,0.0,0.0,90,0.00,,,0.00,VWS V14.01,2013-07-25 23:13:00,
2013-07-25 19:15:00,65.0,62.0,30.04,WSW,255,0.0,0.0,90,0.00,,,0.00,VWS V14.01,2013-07-25 23:15:00,
2013-07-25 19:20:00,64.9,62.2,30.04,ENE,59,0.0,0.0,91,0.00,,,0.00,VWS V14.01,2013-07-25 23:20:00,
2013-07-25 19:25:00,64.8,61.8,30.04,ENE,59,0.0,0.0,90,0.00,,,0.00,VWS V14.01,2013-07-25 23:25:00,
2013-07-25 19:30:00,64.7,62.0,30.04,ENE,59,0.0,0.0,91,0.00,,,0.00,VWS V14.01,2013-07-25 23:30:00,
2013-07-25 19:35:00,64.6,61.9,30.04,ENE,59,0.0,0.0,91,0.00,,,0.00,VWS V14.01,2013-07-25 23:35:00,
2013-07-25 19:40:00,64.5,62.1,30.04,ENE,59,0.0,0.0,92,0.00,,,0.00,VWS V14.01,2013-07-25 23:40:00,
2013-07-25 19:45:00,64.4,62.0,30.04,ENE,59,0.0,0.0,92,0.00,,,0.00,VWS V14.01,2013-07-25 23:45:00,
2013-07-25 19:50:00,64.3,61.9,30.05,ENE,59,0.0,0.0,92,0.00,,,0.00,VWS V14.01,2013-07-25 23:50:00,
2013-07-25 19:55:00,64.2,61.8,30.05,ENE,59,0.0,0.0,92,0.00,,,0.00,VWS V14.01,2013-07-25 23:55:00,
2013-07-25 20:00:00,64.1,61.7,30.05,ENE,59,0.0,0.0,92,0.00,,,0.00,VWS V14.01,2013-07-26 00:00:00,
2013-07-25 20:05:00,64.0,61.9,30.05,ENE,59,0.0,0.0,93,0.00,,,0.00,VWS V14.01,2013-07-26 00:05:00,
2013-07-25 20:10:00,63.9,61.8,30.05,ENE,63,0.0,0.0,93,0.00,,,0.00,VWS V14.01,2013-07-26 00:10:00,
2013-07-25 20:15:00,63.8,61.7,30.05,ENE,63,0.0,0.0,93,0.00,,,0.00,VWS V14.01,2013-07-26 00:15:00,
2013-07-25 20:21:00,63.7,61.6,30.04,ENE,63,0.0,0.0,93,0.00,,,0.00,VWS V14.01,2013-07-26 00:21:00,
2013-07-25 20:26:00,63.6,61.5,30.04,ENE,63,0.0,0.0,93,0.00,,,0.00,VWS V14.01,2013-07-26 00:26:00,
2013-07-25 20:31:00,63.5,61.8,30.04,ENE,63,0.0,0.0,94,0.00,,,0.00,VWS V14.01,2013-07-26 00:31:00,
2013-07-25 20:36:00,63.4,61.7,30.04,ENE,63,0.0,0.0,94,0.00,,,0.00,VWS V14.01,2013-07-26 00:36:00,
2013-07-25 20:41:00,63.3,61.5,30.04,ENE,63,0.0,0.0,94,0.00,,,0.00,VWS V14.01,2013-07-26 00:41:00,
2013-07-25 20:46:00,63.2,61.5,30.04,ENE,63,0.0,0.0,94,0.00,,,0.00,VWS V14.01,2013-07-26 00:46:00,
2013-07-25 20:51:00,63.2,61.5,30.04,ENE,63,0.0,0.0,94,0.00,,,0.00,VWS V14.01,2013-07-26 00:51:00,
2013-07-25 20:56:00,63.2,61.5,30.04,ENE,63,0.0,0.0,94,0.00,,,0.00,VWS V14.01,2013-07-26 00:56:00,
2013-07-25 21:01:00,63.1,61.3,30.04,ENE,63,0.0,0.0,94,0.00,,,0.00,VWS V14.01,2013-07-26 01:01:00,
2013-07-25 21:06:00,63.0,61.2,30.05,ENE,63,0.0,0.0,94,0.00,,,0.00,VWS V14.01,2013-07-26 01:06:00,
2013-07-25 21:12:00,62.9,61.2,30.05,ENE,63,0.0,0.0,94,0.00,,,0.00,VWS V14.01,2013-07-26 01:12:00,
2013-07-25 21:17:00,62.7,60.3,30.05,ENE,63,0.0,0.0,92,0.00,,,0.00,VWS V14.01,2013-07-26 01:17:00,
2013-07-25 21:22:00,62.7,60.3,30.04,ENE,63,0.0,0.0,92,0.00,,,0.00,VWS V14.01,2013-07-26 01:22:00,
2013-07-25 21:27:00,62.8,60.8,30.05,ENE,63,0.0,0.0,93,0.00,,,0.00,VWS V14.01,2013-07-26 01:27:00,
2013-07-25 21:32:00,62.7,60.3,30.05,ENE,63,0.0,0.0,92,0.00,,,0.00,VWS V14.01,2013-07-26 01:32:00,
2013-07-25 21:37:00,62.7,60.7,30.05,ENE,63,0.0,0.0,93,0.00,,,0.00,VWS V14.01,2013-07-26 01:37:00,
2013-07-25 21:42:00,62.6,59.6,30.04,ENE,63,0.0,0.0,90,0.00,,,0.00,VWS V14.01,2013-07-26 01:42:00,
2013-07-25 21:47:00,62.6,59.9,30.04,ENE,63,0.0,0.0,91,0.00,,,0.00,VWS V14.01,2013-07-26 01:47:00,
2013-07-25 21:52:00,62.6,59.9,30.04,ENE,63,0.0,0.0,91,0.00,,,0.00,VWS V14.01,2013-07-26 01:52:00,
2013-07-25 21:57:00,62.5,60.2,30.04,ENE,63,0.0,0.0,92,0.00,,,0.00,VWS V14.01,2013-07-26 01:57:00,
2013-07-25 22:02:00,62.5,60.2,30.04,ENE,63,0.0,0.0,92,0.00,,,0.00,VWS V14.01,2013-07-26 02:02:00,
2013-07-25 22:07:00,62.5,60.5,30.03,ENE,63,0.0,0.0,93,0.00,,,0.00,VWS V14.01,2013-07-26 02:07:00,
2013-07-25 22:13:00,62.5,60.5,30.04,ENE,63,0.0,0.0,93,0.00,,,0.00,VWS V14.01,2013-07-26 02:13:00,
2013-07-25 22:18:00,62.4,60.3,30.04,ENE,63,0.0,0.0,93,0.00,,,0.00,VWS V14.01,2013-07-26 02:18:00,
2013-07-25 22:23:00,62.3,60.2,30.04,ENE,63,0.0,0.0,93,0.00,,,0.00,VWS V14.01,2013-07-26 02:23:00,
2013-07-25 22:28:00,62.2,60.2,30.04,ENE,63,0.0,0.0,93,0.00,,,0.00,VWS V14.01,2013-07-26 02:28:00,
2013-07-25 22:33:00,62.2,60.5,30.04,ENE,63,0.0,0.0,94,0.00,,,0.00,VWS V14.01,2013-07-26 02:33:00,
2013-07-25 22:38:00,62.1,60.4,30.04,ENE,63,0.0,0.0,94,0.00,,,0.00,VWS V14.01,2013-07-26 02:38:00,
2013-07-25 22:43:00,62.0,60.3,30.04,ENE,63,0.0,0.0,94,0.00,,,0.00,VWS V14.01,2013-07-26 02:43:00,
2013-07-25 22:48:00,62.0,60.3,30.04,ENE,63,0.0,0.0,94,0.00,,,0.00,VWS V14.01,2013-07-26 02:48:00,
2013-07-25 22:53:00,61.9,60.2,30.04,ENE,63,0.0,0.0,94,0.00,,,0.00,VWS V14.01,2013-07-26 02:53:00,
2013-07-25 22:58:00,61.8,60.4,30.04,ENE,63,0.0,0.0,95,0.00,,,0.00,VWS V14.01,2013-07-26 02:58:00,
2013-07-25 23:03:00,61.8,60.4,30.04,ENE,63,0.0,0.0,95,0.00,,,0.00,VWS V14.01,2013-07-26 03:03:00,
2013-07-25 23:08:00,61.7,60.3,30.04,ENE,63,0.0,0.0,95,0.00,,,0.00,VWS V14.01,2013-07-26 03:08:00,
2013-07-25 23:13:00,61.7,60.3,30.03,ENE,63,0.0,0.0,95,0.00,,,0.00,VWS V14.01,2013-07-26 03:13:00,
2013-07-25 23:19:00,61.6,60.2,30.03,ENE,63,0.0,0.0,95,0.00,,,0.00,VWS V14.01,2013-07-26 03:19:00,
2013-07-25 23:24:00,61.6,60.2,30.03,ENE,63,0.0,0.0,95,0.00,,,0.00,VWS V14.01,2013-07-26 03:24:00,
2013-07-25 23:29:00,61.5,60.3,30.03,ENE,63,0.0,0.0,96,0.00,,,0.00,VWS V14.01,2013-07-26 03:29:00,
2013-07-25 23:34:00,61.5,60.3,30.03,ENE,63,0.0,0.0,96,0.00,,,0.00,VWS V14.01,2013-07-26 03:34:00,
2013-07-25 23:39:00,61.4,60.2,30.04,ENE,63,0.0,0.0,96,0.00,,,0.00,VWS V14.01,2013-07-26 03:39:00,
2013-07-25 23:44:00,61.3,60.2,30.04,ENE,63,0.0,0.0,96,0.00,,,0.00,VWS V14.01,2013-07-26 03:44:00,
2013-07-25 23:49:00,61.3,60.2,30.04,ENE,63,0.0,0.0,96,0.00,,,0.00,VWS V14.01,2013-07-26 03:49:00,
2013-07-25 23:54:00,61.2,60.0,30.04,ENE,63,0.0,0.0,96,0.00,,,0.00,VWS V14.01,2013-07-26 03:54:00,
2013-07-25 23:59:00,61.3,60.4,30.04,ENE,63,0.0,0.0,97,0.00,,,0.00,VWS V14.01,2013-07-26 03:59:00,